VTRBN KISP-KISP
Flight info
| Callsign | VTRBN |
|---|---|
| Flight time | 0h 11m |
| Altitude | VFR |
| Route | CLOSED TRAFFIC |
| Aircraft | C172/L-DOV/C |
Departure
| Time | 2026-05-07 17:44 |
|---|---|
| Airport | Long Island MacArthur Airport (KISP) |
Arrival
| Time | 2026-05-07 17:55 |
|---|---|
| Airport | Long Island MacArthur Airport (KISP) |
| Time | Latitude | Longitude | Altitude | Speed | Heading |
|---|---|---|---|---|---|
| 2026-05-07 17:28 | 40.78936 | -73.09289 | 90 ft | 0 kts | 182° |
| 2026-05-07 17:33 | 40.78935 | -73.09289 | 90 ft | 0 kts | 182° |
| 2026-05-07 17:34 | 40.78931 | -73.09289 | 90 ft | 4 kts | 188° |
| 2026-05-07 17:34 | 40.78964 | -73.09349 | 92 ft | 17 kts | 321° |
| 2026-05-07 17:34 | 40.79060 | -73.09462 | 88 ft | 12 kts | 313° |
| 2026-05-07 17:34 | 40.79079 | -73.09495 | 88 ft | 0 kts | 307° |
| 2026-05-07 17:35 | 40.79081 | -73.09498 | 88 ft | 2 kts | 301° |
| 2026-05-07 17:35 | 40.79087 | -73.09549 | 88 ft | 9 kts | 271° |
| 2026-05-07 17:35 | 40.79090 | -73.09663 | 91 ft | 16 kts | 284° |
| 2026-05-07 17:35 | 40.79115 | -73.09792 | 89 ft | 12 kts | 277° |
| 2026-05-07 17:36 | 40.79113 | -73.09881 | 90 ft | 8 kts | 268° |
| 2026-05-07 17:36 | 40.79114 | -73.09923 | 90 ft | 2 kts | 273° |
| 2026-05-07 17:36 | 40.79115 | -73.09924 | 90 ft | 0 kts | 288° |
| 2026-05-07 17:36 | 40.79114 | -73.09950 | 90 ft | 7 kts | 263° |
| 2026-05-07 17:37 | 40.79113 | -73.10071 | 91 ft | 19 kts | 270° |
| 2026-05-07 17:37 | 40.79113 | -73.10296 | 93 ft | 30 kts | 269° |
| 2026-05-07 17:37 | 40.79113 | -73.10585 | 94 ft | 28 kts | 269° |
| 2026-05-07 17:37 | 40.79116 | -73.10690 | 95 ft | 7 kts | 278° |
| 2026-05-07 17:38 | 40.79137 | -73.10720 | 95 ft | 3 kts | 0° |
| 2026-05-07 17:38 | 40.79142 | -73.10719 | 95 ft | 0 kts | 1° |
| 2026-05-07 17:42 | 40.79184 | -73.10718 | 95 ft | 12 kts | 2° |
| 2026-05-07 17:42 | 40.79261 | -73.10715 | 96 ft | 8 kts | 17° |
| 2026-05-07 17:42 | 40.79283 | -73.10694 | 96 ft | 0 kts | 45° |
| 2026-05-07 17:42 | 40.79287 | -73.10688 | 96 ft | 5 kts | 42° |
| 2026-05-07 17:43 | 40.79427 | -73.10506 | 98 ft | 50 kts | 47° |
| 2026-05-07 17:43 | 40.79747 | -73.10146 | 178 ft | 67 kts | 22° |
| 2026-05-07 17:43 | 40.80156 | -73.09798 | 356 ft | 73 kts | 31° |
| 2026-05-07 17:43 | 40.80561 | -73.09320 | 513 ft | 83 kts | 39° |
| 2026-05-07 17:44 | 40.81044 | -73.08885 | 691 ft | 83 kts | 23° |
| 2026-05-07 17:44 | 40.81523 | -73.08526 | 903 ft | 81 kts | 27° |
| 2026-05-07 17:44 | 40.82014 | -73.08129 | 1064 ft | 91 kts | 32° |
| 2026-05-07 17:44 | 40.82543 | -73.07655 | 1255 ft | 90 kts | 30° |
| 2026-05-07 17:45 | 40.83088 | -73.07287 | 1406 ft | 92 kts | 9° |
| 2026-05-07 17:45 | 40.83689 | -73.07388 | 1613 ft | 84 kts | 345° |
| 2026-05-07 17:45 | 40.84238 | -73.07529 | 1531 ft | 87 kts | 353° |
| 2026-05-07 17:45 | 40.84813 | -73.07595 | 1632 ft | 72 kts | 349° |
| 2026-05-07 17:46 | 40.85323 | -73.07740 | 1596 ft | 78 kts | 347° |
| 2026-05-07 17:46 | 40.85832 | -73.07843 | 1629 ft | 77 kts | 322° |
| 2026-05-07 17:46 | 40.85808 | -73.08524 | 1862 ft | 77 kts | 253° |
| 2026-05-07 17:46 | 40.85639 | -73.09237 | 1925 ft | 78 kts | 265° |
| 2026-05-07 17:47 | 40.85479 | -73.09891 | 1951 ft | 82 kts | 250° |
| 2026-05-07 17:47 | 40.85202 | -73.10530 | 1934 ft | 82 kts | 245° |
| 2026-05-07 17:47 | 40.84893 | -73.11187 | 1944 ft | 81 kts | 248° |
| 2026-05-07 17:47 | 40.84586 | -73.11950 | 1801 ft | 99 kts | 246° |
| 2026-05-07 17:48 | 40.84232 | -73.12723 | 1779 ft | 100 kts | 244° |
| 2026-05-07 17:48 | 40.83800 | -73.13452 | 1738 ft | 101 kts | 230° |
| 2026-05-07 17:48 | 40.83177 | -73.13913 | 1642 ft | 113 kts | 194° |
| 2026-05-07 17:48 | 40.82446 | -73.14121 | 1751 ft | 100 kts | 202° |
| 2026-05-07 17:49 | 40.81790 | -73.14555 | 1670 ft | 109 kts | 220° |
| 2026-05-07 17:49 | 40.81178 | -73.15019 | 1834 ft | 101 kts | 204° |
| 2026-05-07 17:49 | 40.80429 | -73.15083 | 1830 ft | 110 kts | 170° |
| 2026-05-07 17:49 | 40.79957 | -73.14985 | 1968 ft | 101 kts | 174° |
| 2026-05-07 17:50 | 40.79215 | -73.14766 | 2035 ft | 114 kts | 175° |
| 2026-05-07 17:50 | 40.78520 | -73.14375 | 2504 ft | 105 kts | 151° |
| 2026-05-07 17:50 | 40.77861 | -73.13856 | 2685 ft | 104 kts | 149° |
| 2026-05-07 17:50 | 40.77300 | -73.13384 | 2547 ft | 99 kts | 149° |
| 2026-05-07 17:51 | 40.76642 | -73.12933 | 2138 ft | 115 kts | 160° |
| 2026-05-07 17:51 | 40.75918 | -73.12949 | 1878 ft | 106 kts | 212° |
| 2026-05-07 17:51 | 40.75442 | -73.13638 | 1659 ft | 95 kts | 246° |
| 2026-05-07 17:51 | 40.75112 | -73.14386 | 1479 ft | 94 kts | 242° |
| 2026-05-07 17:52 | 40.74768 | -73.15109 | 1238 ft | 96 kts | 243° |
| 2026-05-07 17:52 | 40.74463 | -73.15910 | 968 ft | 94 kts | 270° |
| 2026-05-07 17:52 | 40.74845 | -73.16502 | 899 ft | 87 kts | 355° |
| 2026-05-07 17:52 | 40.75334 | -73.16008 | 731 ft | 100 kts | 55° |
| 2026-05-07 17:53 | 40.75708 | -73.15278 | 645 ft | 91 kts | 49° |
| 2026-05-07 17:53 | 40.76094 | -73.14641 | 494 ft | 86 kts | 40° |
| 2026-05-07 17:53 | 40.76577 | -73.14148 | 376 ft | 87 kts | 36° |
| 2026-05-07 17:53 | 40.77020 | -73.13636 | 365 ft | 83 kts | 32° |
| 2026-05-07 17:54 | 40.77430 | -73.13105 | 269 ft | 88 kts | 42° |
| 2026-05-07 17:54 | 40.77844 | -73.12548 | 405 ft | 73 kts | 35° |
| 2026-05-07 17:54 | 40.78166 | -73.12133 | 441 ft | 57 kts | 41° |
| 2026-05-07 17:54 | 40.78442 | -73.11739 | 291 ft | 58 kts | 41° |
| 2026-05-07 17:55 | 40.78728 | -73.11407 | 120 ft | 55 kts | 34° |
| 2026-05-07 17:55 | 40.78980 | -73.11103 | 96 ft | 40 kts | 47° |
| 2026-05-07 17:55 | 40.79132 | -73.10893 | 94 ft | 25 kts | 47° |
| 2026-05-07 17:55 | 40.79213 | -73.10777 | 96 ft | 12 kts | 54° |
| 2026-05-07 17:56 | 40.79222 | -73.10716 | 96 ft | 5 kts | 176° |
| 2026-05-07 17:56 | 40.79206 | -73.10716 | 95 ft | 0 kts | 178° |
| 2026-05-07 17:56 | 40.79204 | -73.10716 | 95 ft | 3 kts | 179° |
| 2026-05-07 17:57 | 40.79135 | -73.10711 | 95 ft | 12 kts | 165° |
| 2026-05-07 17:57 | 40.79113 | -73.10663 | 95 ft | 9 kts | 86° |
| 2026-05-07 17:57 | 40.79114 | -73.10570 | 94 ft | 6 kts | 91° |
| 2026-05-07 17:57 | 40.79114 | -73.10521 | 94 ft | 5 kts | 88° |
| 2026-05-07 17:58 | 40.79116 | -73.10484 | 94 ft | 3 kts | 102° |
| 2026-05-07 17:58 | 40.79114 | -73.10451 | 93 ft | 5 kts | 92° |
| 2026-05-07 17:58 | 40.79113 | -73.10395 | 93 ft | 8 kts | 89° |
| 2026-05-07 17:58 | 40.79114 | -73.10315 | 93 ft | 10 kts | 89° |
| 2026-05-07 17:59 | 40.79114 | -73.10220 | 92 ft | 11 kts | 89° |
| 2026-05-07 17:59 | 40.79114 | -73.10128 | 92 ft | 7 kts | 91° |
| 2026-05-07 17:59 | 40.79087 | -73.10098 | 91 ft | 0 kts | 175° |
| 2026-05-07 17:59 | 40.79071 | -73.10096 | 92 ft | 8 kts | 173° |
| 2026-05-07 18:00 | 40.79019 | -73.10076 | 92 ft | 6 kts | 182° |
| 2026-05-07 18:00 | 40.79012 | -73.10077 | 93 ft | 0 kts | 185° |